createdAt,value
2023-01-13T00:00:36.171Z,1.30
2023-01-13T00:03:03.535Z,2.67
2023-01-13T00:05:30.441Z,3.63
2023-01-13T00:07:57.325Z,2.22
2023-01-13T00:10:24.337Z,1.58
2023-01-13T00:12:51.598Z,1.55
2023-01-13T00:15:18.562Z,2.33
2023-01-13T00:17:45.466Z,1.02
2023-01-13T00:20:12.560Z,2.17
2023-01-13T00:22:39.549Z,3.00
2023-01-13T00:25:06.985Z,1.13
2023-01-13T00:27:34.369Z,3.03
2023-01-13T00:30:01.796Z,2.38
2023-01-13T00:32:28.923Z,2.72
2023-01-13T00:34:55.897Z,2.47
2023-01-13T00:37:23.527Z,5.22
2023-01-13T00:39:52.214Z,2.20
2023-01-13T00:42:38.135Z,2.85
2023-01-13T00:45:05.706Z,2.72
2023-01-13T00:47:32.770Z,3.13
2023-01-13T00:49:59.653Z,2.42
2023-01-13T00:52:27.251Z,2.65
2023-01-13T00:54:54.186Z,2.28
2023-01-13T00:57:21.088Z,3.17
2023-01-13T00:59:49.646Z,4.35
2023-01-13T01:02:16.719Z,3.20
2023-01-13T01:04:43.783Z,6.95
2023-01-13T01:07:10.681Z,4.35
2023-01-13T01:09:39.481Z,5.60
2023-01-13T01:12:06.549Z,4.45
2023-01-13T01:14:33.847Z,4.28
2023-01-13T01:17:00.756Z,7.63
2023-01-13T01:19:27.663Z,7.03
2023-01-13T01:21:55.095Z,6.22
2023-01-13T01:24:22.033Z,5.68
2023-01-13T01:26:48.912Z,5.10
2023-01-13T01:29:15.951Z,5.35
2023-01-13T01:31:43.497Z,5.88
2023-01-13T01:34:10.856Z,8.13
2023-01-13T01:36:39.156Z,7.47
2023-01-13T01:39:06.864Z,9.98
2023-01-13T01:41:35.841Z,8.35
2023-01-13T01:44:26.363Z,6.57
2023-01-13T01:49:25.721Z,6.00
2023-01-13T01:52:16.354Z,13.52
2023-01-13T01:55:09.390Z,7.10
2023-01-13T01:57:54.986Z,4.65
2023-01-13T02:00:22.587Z,7.05
2023-01-13T02:02:51.776Z,8.88
2023-01-13T02:05:19.592Z,8.38
2023-01-13T02:07:48.860Z,10.07
2023-01-13T02:10:19.658Z,12.10
2023-01-13T02:12:48.746Z,12.63
2023-01-13T02:15:22.312Z,6.03
2023-01-13T02:18:07.300Z,5.00
2023-01-13T02:20:42.997Z,3.22
2023-01-13T02:23:53.589Z,3.42
2023-01-13T02:29:43.434Z,3.00
2023-01-13T02:32:20.855Z,7.68
2023-01-13T02:35:04.186Z,5.75
2023-01-13T02:37:34.497Z,3.90
2023-01-13T02:40:08.780Z,4.63
2023-01-13T02:43:11.534Z,3.50
2023-01-13T02:45:47.838Z,4.88
2023-01-13T02:48:16.648Z,4.53
2023-01-13T02:50:59.065Z,5.38
2023-01-13T02:53:40.769Z,2.15
2023-01-13T02:56:10.055Z,2.88
2023-01-13T02:58:39.699Z,14.07
2023-01-13T03:01:06.838Z,2.53
2023-01-13T03:03:33.719Z,2.90
2023-01-13T03:06:25.951Z,7.47
2023-01-13T03:09:35.750Z,5.20
2023-01-13T03:12:17.756Z,4.88
2023-01-13T03:15:04.619Z,2.78
2023-01-13T03:17:46.617Z,3.22
2023-01-13T03:20:17.252Z,3.40
2023-01-13T03:23:11.977Z,3.75
2023-01-13T03:25:48.853Z,3.50
2023-01-13T03:28:32.431Z,2.65
2023-01-13T03:31:08.091Z,4.28
2023-01-13T03:33:40.992Z,4.05
2023-01-13T03:36:10.657Z,3.63
2023-01-13T03:38:42.877Z,4.90
2023-01-13T03:41:15.259Z,2.92
2023-01-13T03:44:21.607Z,2.83
2023-01-13T03:47:04.077Z,3.72
2023-01-13T03:49:59.628Z,5.88
2023-01-13T03:52:34.641Z,3.45
2023-01-13T03:55:10.650Z,4.30
2023-01-13T03:57:43.203Z,4.05
2023-01-13T04:00:12.508Z,7.63
2023-01-13T04:02:47.738Z,7.50
2023-01-13T04:05:15.220Z,4.07
2023-01-13T04:08:17.313Z,7.50
2023-01-13T04:10:56.303Z,6.55
2023-01-13T04:13:27.220Z,5.10
2023-01-13T04:15:54.204Z,5.88
2023-01-13T04:18:30.508Z,5.70
2023-01-13T04:20:59.590Z,5.15
2023-01-13T04:23:28.092Z,6.78
2023-01-13T04:25:55.385Z,6.13
2023-01-13T04:28:22.632Z,6.38
2023-01-13T04:30:49.810Z,6.88
2023-01-13T04:33:17.810Z,9.60
2023-01-13T04:35:46.076Z,12.25
2023-01-13T04:38:15.255Z,8.52
2023-01-13T04:40:42.343Z,9.68
2023-01-13T04:43:09.664Z,7.50
2023-01-13T04:45:37.011Z,8.00
2023-01-13T04:48:04.098Z,8.15
2023-01-13T04:50:31.067Z,6.22
2023-01-13T04:52:58.022Z,6.47
2023-01-13T04:55:25.380Z,9.15
2023-01-13T04:57:52.520Z,6.90
2023-01-13T05:00:21.948Z,7.60
2023-01-13T05:02:52.322Z,6.77
2023-01-13T05:05:19.336Z,10.55
2023-01-13T05:07:46.263Z,8.43
2023-01-13T05:10:13.357Z,9.80
2023-01-13T05:12:59.209Z,7.25
2023-01-13T05:15:44.567Z,9.52
2023-01-13T05:18:11.918Z,7.10
2023-01-13T05:20:38.750Z,7.68
2023-01-13T05:23:24.938Z,11.05
2023-01-13T05:25:51.845Z,7.22
2023-01-13T05:28:18.682Z,11.00
2023-01-13T05:30:49.146Z,8.23
2023-01-13T05:33:20.342Z,8.18
2023-01-13T05:35:49.330Z,7.28
2023-01-13T05:38:17.174Z,9.68
2023-01-13T05:41:02.730Z,8.00
2023-01-13T05:43:30.384Z,8.13
2023-01-13T05:46:08.068Z,8.32
2023-01-13T05:48:42.917Z,6.60
2023-01-13T05:51:11.673Z,8.73
2023-01-13T05:53:40.785Z,10.70
2023-01-13T05:56:09.037Z,12.63
2023-01-13T05:58:36.234Z,7.90
2023-01-13T06:01:06.290Z,9.90
2023-01-13T06:03:33.682Z,10.77
2023-01-13T06:06:02.170Z,11.07
2023-01-13T06:08:29.997Z,11.95
2023-01-13T06:10:57.195Z,11.80
2023-01-13T06:13:25.495Z,11.05
2023-01-13T06:15:55.758Z,11.13
2023-01-13T06:18:22.690Z,11.50
2023-01-13T06:20:49.616Z,12.63
2023-01-13T06:23:16.405Z,17.48
2023-01-13T06:26:08.056Z,13.57
2023-01-13T06:28:35.583Z,12.80
2023-01-13T06:31:06.129Z,11.52
2023-01-13T06:33:38.317Z,15.15
2023-01-13T06:36:12.153Z,12.07
2023-01-13T06:38:42.785Z,12.00
2023-01-13T06:41:09.760Z,15.43
2023-01-13T06:43:37.978Z,13.77
2023-01-13T06:46:04.927Z,13.82
2023-01-13T06:48:35.168Z,12.80
2023-01-13T06:51:03.575Z,16.27
2023-01-13T06:53:30.578Z,12.93
2023-01-13T06:55:57.464Z,13.30
2023-01-13T06:58:24.273Z,8.38
2023-01-13T07:00:51.642Z,10.77
2023-01-13T07:03:19.235Z,18.92
2023-01-13T07:05:53.260Z,8.85
2023-01-13T07:08:20.448Z,11.45
2023-01-13T07:10:47.318Z,10.23
2023-01-13T07:13:33.304Z,10.95
2023-01-13T07:16:02.849Z,12.45
2023-01-13T07:18:31.824Z,9.10
2023-01-13T07:21:05.133Z,8.07
2023-01-13T07:23:34.382Z,10.80
2023-01-13T07:26:01.602Z,10.75
2023-01-13T07:28:29.989Z,11.25
2023-01-13T07:30:57.457Z,8.43
2023-01-13T07:33:24.641Z,9.00
2023-01-13T07:36:02.643Z,12.07
2023-01-13T07:38:30.383Z,11.07
2023-01-13T07:40:57.279Z,13.13
2023-01-13T07:43:33.041Z,12.07
2023-01-13T07:46:02.101Z,9.55
2023-01-13T07:48:30.695Z,10.40
2023-01-13T07:51:08.678Z,10.45
2023-01-13T07:53:35.936Z,9.32
2023-01-13T07:56:04.513Z,7.93
2023-01-13T07:58:32.435Z,8.32
2023-01-13T08:00:59.486Z,4.63
2023-01-13T08:03:27.286Z,5.78
2023-01-13T08:05:54.271Z,4.03
2023-01-13T08:08:21.216Z,4.70
2023-01-13T08:10:48.145Z,5.28
2023-01-13T08:13:18.115Z,3.65
2023-01-13T08:15:49.856Z,5.20
2023-01-13T08:18:20.923Z,6.65
2023-01-13T08:20:52.681Z,5.25
2023-01-13T08:23:21.084Z,6.45
2023-01-13T08:25:48.273Z,9.00
2023-01-13T08:28:16.409Z,9.55
2023-01-13T08:30:44.019Z,11.50
2023-01-13T08:33:12.203Z,9.60
2023-01-13T08:35:40.248Z,11.73
2023-01-13T08:38:08.231Z,8.98
2023-01-13T08:40:35.395Z,6.57
2023-01-13T08:43:02.770Z,9.43
2023-01-13T08:45:29.676Z,10.55
2023-01-13T08:47:56.570Z,8.73
2023-01-13T08:50:23.975Z,12.65
2023-01-13T08:52:50.803Z,12.10
2023-01-13T08:55:17.646Z,12.07
2023-01-13T08:57:44.606Z,10.63
2023-01-13T09:00:12.814Z,12.93
2023-01-13T09:02:39.733Z,9.27
2023-01-13T09:05:08.389Z,12.38
2023-01-13T09:07:37.217Z,14.85
2023-01-13T09:10:07.021Z,19.30
2023-01-13T09:12:52.561Z,14.18
2023-01-13T09:15:19.645Z,10.23
2023-01-13T09:17:47.934Z,11.88
2023-01-13T09:20:15.157Z,11.48
2023-01-13T09:22:42.077Z,15.90
2023-01-13T09:25:09.446Z,13.48
2023-01-13T09:27:36.406Z,10.15
2023-01-13T09:30:03.733Z,11.32
2023-01-13T09:32:30.593Z,14.80
2023-01-13T09:35:00.429Z,12.07
2023-01-13T09:37:38.501Z,16.15
2023-01-13T09:40:14.148Z,16.25
2023-01-13T09:43:10.227Z,13.77
2023-01-13T09:45:42.963Z,11.40
2023-01-13T09:48:12.840Z,10.95
2023-01-13T09:51:01.210Z,10.88
2023-01-13T09:53:33.030Z,12.80
2023-01-13T09:56:00.627Z,11.45
2023-01-13T09:58:27.512Z,13.05
2023-01-13T10:01:01.728Z,13.95
2023-01-13T10:03:31.170Z,12.48
2023-01-13T10:06:00.795Z,9.53
2023-01-13T10:08:32.671Z,13.05
2023-01-13T10:11:21.821Z,10.52
2023-01-13T10:13:53.561Z,17.30
2023-01-13T10:16:48.692Z,10.07
2023-01-13T10:19:40.839Z,8.68
2023-01-13T10:22:32.322Z,11.98
2023-01-13T10:25:23.550Z,9.43
2023-01-13T10:27:52.840Z,13.20
2023-01-13T10:30:36.209Z,10.60
2023-01-13T10:33:17.807Z,15.68
2023-01-13T10:35:59.137Z,12.35
2023-01-13T10:38:39.966Z,14.45
2023-01-13T10:41:15.682Z,12.10
2023-01-13T10:44:01.437Z,21.23
2023-01-13T10:46:29.813Z,7.78
2023-01-13T10:48:59.234Z,11.13
2023-01-13T10:51:28.948Z,10.05
2023-01-13T10:53:59.480Z,10.05
2023-01-13T10:56:30.144Z,7.15
2023-01-13T10:59:19.930Z,13.48
2023-01-13T11:02:26.414Z,17.55
2023-01-13T11:04:53.738Z,11.27
2023-01-13T11:07:28.922Z,20.05
2023-01-13T11:10:27.505Z,12.57
2023-01-13T11:13:18.448Z,10.98
2023-01-13T11:16:05.389Z,8.55
2023-01-13T11:19:11.710Z,16.25
2023-01-13T11:21:41.628Z,10.68
2023-01-13T11:24:40.065Z,15.07
2023-01-13T11:27:12.009Z,12.50
2023-01-13T11:29:51.128Z,15.50
2023-01-13T11:32:20.369Z,17.70
2023-01-13T11:34:55.898Z,10.27
2023-01-13T11:37:25.512Z,19.10
2023-01-13T11:40:13.361Z,12.75
2023-01-13T11:43:03.202Z,15.63
2023-01-13T11:45:29.954Z,12.43
2023-01-13T11:48:00.285Z,14.30
2023-01-13T11:53:52.927Z,11.43
2023-01-13T11:56:38.039Z,16.85
2023-01-13T11:59:35.050Z,16.90
2023-01-13T12:02:07.677Z,13.15
2023-01-13T12:04:49.470Z,21.23
2023-01-13T12:07:27.467Z,14.77
2023-01-13T12:09:57.096Z,20.77
2023-01-13T12:12:43.429Z,17.35
2023-01-13T12:15:22.429Z,14.50
2023-01-13T12:17:55.144Z,15.02
2023-01-13T12:20:41.498Z,18.20
2023-01-13T12:23:26.058Z,21.27
2023-01-13T12:26:05.217Z,16.45
2023-01-13T12:28:56.585Z,18.63
2023-01-13T12:31:25.046Z,23.30
2023-01-13T12:34:08.689Z,18.48
2023-01-13T12:36:59.819Z,18.58
2023-01-13T12:39:37.774Z,16.13
2023-01-13T12:42:44.862Z,14.95
2023-01-13T12:45:11.619Z,18.33
2023-01-13T12:47:43.712Z,20.48
2023-01-13T12:50:22.825Z,18.05
2023-01-13T12:53:00.747Z,20.52
2023-01-13T12:55:30.715Z,21.25
2023-01-13T12:58:06.260Z,22.45
2023-01-13T13:00:42.380Z,19.75
2023-01-13T13:03:12.434Z,18.73
2023-01-13T13:05:54.267Z,31.15
2023-01-13T13:09:01.077Z,28.83
2023-01-13T13:11:55.415Z,19.55
2023-01-13T13:14:37.318Z,24.40
2023-01-13T13:17:05.479Z,24.20
2023-01-13T13:19:32.215Z,22.75
2023-01-13T13:22:14.544Z,26.17
2023-01-13T13:25:02.649Z,19.92
2023-01-13T13:27:38.347Z,25.17
2023-01-13T13:30:30.909Z,24.25
2023-01-13T13:33:35.198Z,23.02
2023-01-13T13:36:17.172Z,40.30
2023-01-13T13:39:27.094Z,27.95
2023-01-13T13:42:28.029Z,27.30
2023-01-13T13:45:14.629Z,31.25
2023-01-13T13:47:41.489Z,17.17
2023-01-13T13:50:20.458Z,28.95
2023-01-13T13:53:05.864Z,24.60
2023-01-13T13:55:33.161Z,22.58
2023-01-13T13:58:01.720Z,24.33
2023-01-13T14:00:34.773Z,27.38
2023-01-13T14:03:07.986Z,29.95
2023-01-13T14:05:36.576Z,29.30
2023-01-13T14:08:14.280Z,31.52
2023-01-13T14:10:43.355Z,33.08
2023-01-13T14:13:14.406Z,37.97
2023-01-13T14:15:41.416Z,25.70
2023-01-13T14:18:21.700Z,24.48
2023-01-13T14:21:18.570Z,21.55
2023-01-13T14:24:10.648Z,27.25
2023-01-13T14:26:37.902Z,38.50
2023-01-13T14:29:05.187Z,28.92
2023-01-13T14:31:32.367Z,25.67
2023-01-13T14:34:03.068Z,25.85
2023-01-13T14:36:51.277Z,32.45
2023-01-13T14:39:18.015Z,28.88
2023-01-13T14:41:49.573Z,21.92
2023-01-13T14:44:26.485Z,30.40
2023-01-13T14:46:58.650Z,26.88
2023-01-13T14:49:40.382Z,31.73
2023-01-13T14:52:14.912Z,37.13
2023-01-13T14:54:46.394Z,27.60
2023-01-13T14:57:16.415Z,28.45
2023-01-13T14:59:51.634Z,18.60
2023-01-13T15:02:36.316Z,25.15
2023-01-13T15:05:22.419Z,38.03
2023-01-13T15:07:59.577Z,25.48
2023-01-13T15:10:47.832Z,22.05
2023-01-13T15:13:26.239Z,29.98
2023-01-13T15:15:59.263Z,25.15
2023-01-13T15:18:26.387Z,34.47
2023-01-13T15:20:53.554Z,19.00
2023-01-13T15:23:20.648Z,30.08
2023-01-13T15:25:49.040Z,17.77
2023-01-13T15:28:24.728Z,29.02
2023-01-13T15:30:53.579Z,42.10
2023-01-13T15:33:22.348Z,22.55
2023-01-13T15:35:52.036Z,27.17
2023-01-13T15:38:21.568Z,24.52
2023-01-13T15:40:50.160Z,30.67
2023-01-13T15:43:38.269Z,26.67
2023-01-13T15:46:36.496Z,19.33
2023-01-13T15:49:16.412Z,17.25
2023-01-13T15:51:44.588Z,16.73
2023-01-13T15:54:12.039Z,29.33
2023-01-13T15:56:39.360Z,26.02
2023-01-13T15:59:22.015Z,18.80
2023-01-13T16:01:48.907Z,14.63
2023-01-13T16:04:15.776Z,26.58
2023-01-13T16:06:42.956Z,35.53
2023-01-13T16:09:14.235Z,22.55
2023-01-13T16:11:41.119Z,22.70
2023-01-13T16:14:07.983Z,29.73
2023-01-13T16:16:36.104Z,29.63
2023-01-13T16:19:03.056Z,22.33
2023-01-13T16:21:29.939Z,26.23
2023-01-13T16:23:56.798Z,12.52
2023-01-13T16:26:26.635Z,23.85
2023-01-13T16:28:55.886Z,30.42
2023-01-13T16:31:32.112Z,20.00
2023-01-13T16:34:03.665Z,25.58
2023-01-13T16:36:33.831Z,27.00
2023-01-13T16:39:01.049Z,22.90
2023-01-13T16:41:27.941Z,14.52
2023-01-13T16:43:54.920Z,23.05
2023-01-13T16:46:29.490Z,26.48
2023-01-13T16:49:01.316Z,17.83
2023-01-13T16:51:28.181Z,18.17
2023-01-13T16:53:54.994Z,23.88
2023-01-13T16:56:27.997Z,21.80
2023-01-13T16:58:57.783Z,20.42
2023-01-13T17:01:27.986Z,22.45
2023-01-13T17:03:55.611Z,21.83
2023-01-13T17:06:33.003Z,17.42
2023-01-13T17:09:08.712Z,26.08
2023-01-13T17:11:35.584Z,22.20
2023-01-13T17:14:02.468Z,25.77
2023-01-13T17:16:45.854Z,19.95
2023-01-13T17:19:13.428Z,18.88
2023-01-13T17:21:40.447Z,22.58
2023-01-13T17:24:08.055Z,10.23
2023-01-13T17:26:42.175Z,20.33
2023-01-13T17:29:13.490Z,25.58
2023-01-13T17:31:40.807Z,28.38
2023-01-13T17:34:07.864Z,19.95
2023-01-13T17:36:34.781Z,22.85
2023-01-13T17:39:01.660Z,20.67
2023-01-13T17:41:28.650Z,25.67
2023-01-13T17:43:55.587Z,33.67
2023-01-13T17:46:23.194Z,22.05
2023-01-13T17:48:54.051Z,26.02
2023-01-13T17:51:25.555Z,24.25
2023-01-13T17:53:53.905Z,24.98
2023-01-13T17:56:20.859Z,23.90
2023-01-13T17:58:47.814Z,20.92
2023-01-13T18:01:17.462Z,25.92
2023-01-13T18:03:45.138Z,25.85
2023-01-13T18:06:23.130Z,22.17
2023-01-13T18:08:50.306Z,29.83
2023-01-13T18:11:19.538Z,17.50
2023-01-13T18:13:55.132Z,27.13
2023-01-13T18:16:22.306Z,24.38
2023-01-13T18:18:51.772Z,19.25
2023-01-13T18:21:40.369Z,19.33
2023-01-13T18:24:30.178Z,17.83
2023-01-13T18:27:16.666Z,20.98
2023-01-13T18:29:43.865Z,11.13
2023-01-13T18:32:10.929Z,16.95
2023-01-13T18:34:38.667Z,21.08
2023-01-13T18:37:07.090Z,27.23
2023-01-13T18:39:33.994Z,15.65
2023-01-13T18:42:19.308Z,13.57
2023-01-13T18:44:46.177Z,17.25
2023-01-13T18:47:12.977Z,20.23
2023-01-13T18:49:39.816Z,24.23
2023-01-13T18:52:06.676Z,20.08
2023-01-13T18:54:33.971Z,12.13
2023-01-13T18:57:02.820Z,22.92
2023-01-13T18:59:30.378Z,19.63
2023-01-13T19:01:58.452Z,10.85
2023-01-13T19:04:25.416Z,15.77
2023-01-13T19:06:52.386Z,21.48
2023-01-13T19:09:28.509Z,14.40
2023-01-13T19:11:57.204Z,21.00
2023-01-13T19:14:34.527Z,19.02
2023-01-13T19:17:02.132Z,13.15
2023-01-13T19:19:29.630Z,10.57
2023-01-13T19:21:56.471Z,22.58
2023-01-13T19:24:25.998Z,14.13
2023-01-13T19:26:54.208Z,14.02
2023-01-13T19:29:21.389Z,19.80
2023-01-13T19:31:48.589Z,17.52
2023-01-13T19:34:15.540Z,10.02
2023-01-13T19:36:42.788Z,18.17
2023-01-13T19:39:10.522Z,14.48
2023-01-13T19:41:56.302Z,14.63
2023-01-13T19:44:41.671Z,18.05
2023-01-13T19:47:08.580Z,12.40
2023-01-13T19:49:35.395Z,13.82
2023-01-13T19:52:02.232Z,18.70
2023-01-13T19:54:29.189Z,13.07
2023-01-13T19:56:56.103Z,13.52
2023-01-13T19:59:29.043Z,11.68
2023-01-13T20:02:10.677Z,18.90
2023-01-13T20:04:38.504Z,16.67
2023-01-13T20:07:06.227Z,16.83
2023-01-13T20:09:34.211Z,11.52
2023-01-13T20:12:07.897Z,14.40
2023-01-13T20:14:34.723Z,14.25
2023-01-13T20:17:01.542Z,12.32
2023-01-13T20:19:28.350Z,10.65
2023-01-13T20:21:55.196Z,14.95
2023-01-13T20:24:22.099Z,11.32
2023-01-13T20:26:48.901Z,10.15
2023-01-13T20:29:15.713Z,16.20
2023-01-13T20:31:42.581Z,11.10
2023-01-13T20:34:09.683Z,16.98
2023-01-13T20:36:38.959Z,12.55
2023-01-13T20:39:08.291Z,7.95
2023-01-13T20:41:53.517Z,14.02
2023-01-13T20:44:20.474Z,12.30
2023-01-13T20:46:47.328Z,14.88
2023-01-13T20:49:15.979Z,16.08
2023-01-13T20:51:43.077Z,11.30
2023-01-13T20:54:09.989Z,17.45
2023-01-13T20:56:37.337Z,7.90
2023-01-13T20:59:05.003Z,17.00
2023-01-13T21:01:32.277Z,12.43
2023-01-13T21:04:00.270Z,14.70
2023-01-13T21:06:28.892Z,7.32
2023-01-13T21:08:56.312Z,10.48
2023-01-13T21:11:43.910Z,17.08
2023-01-13T21:14:38.962Z,13.30
2023-01-13T21:17:06.857Z,17.05
2023-01-13T21:19:33.902Z,21.60
2023-01-13T21:22:00.746Z,14.52
2023-01-13T21:24:27.736Z,24.95
2023-01-13T21:26:58.989Z,7.22
2023-01-13T21:29:25.844Z,16.45
2023-01-13T21:31:54.157Z,7.63
2023-01-13T21:34:20.968Z,7.43
2023-01-13T21:36:47.754Z,22.02
2023-01-13T21:39:16.034Z,21.83
2023-01-13T21:42:01.531Z,14.43
2023-01-13T21:44:46.966Z,13.55
2023-01-13T21:47:37.522Z,14.30
2023-01-13T21:50:08.974Z,9.68
2023-01-13T21:52:35.948Z,14.07
2023-01-13T21:55:20.023Z,15.20
2023-01-13T21:57:51.956Z,12.38
2023-01-13T22:00:20.354Z,17.40
2023-01-13T22:02:48.378Z,17.60
2023-01-13T22:05:20.498Z,10.65
2023-01-13T22:07:47.817Z,8.90
2023-01-13T22:10:20.000Z,7.90
2023-01-13T22:12:48.004Z,11.32
2023-01-13T22:15:16.588Z,9.45
2023-01-13T22:17:45.510Z,12.00
2023-01-13T22:20:13.379Z,5.97
2023-01-13T22:22:40.688Z,7.78
2023-01-13T22:25:10.683Z,14.60
2023-01-13T22:27:44.381Z,8.98
2023-01-13T22:30:21.830Z,14.68
2023-01-13T22:32:48.880Z,14.18
2023-01-13T22:35:16.336Z,11.70
2023-01-13T22:37:43.347Z,10.45
2023-01-13T22:40:12.323Z,10.68
2023-01-13T22:42:40.780Z,13.23
2023-01-13T22:45:11.337Z,14.38
2023-01-13T22:47:38.714Z,13.45
2023-01-13T22:50:07.359Z,16.00
2023-01-13T22:52:34.902Z,11.90
2023-01-13T22:55:01.935Z,17.85
2023-01-13T22:57:36.604Z,10.73
2023-01-13T23:00:10.697Z,8.60
2023-01-13T23:02:38.488Z,11.50
2023-01-13T23:05:05.726Z,12.50
2023-01-13T23:07:32.574Z,11.48
2023-01-13T23:09:59.978Z,11.18
2023-01-13T23:12:26.820Z,8.57
2023-01-13T23:14:54.554Z,9.90
2023-01-13T23:17:21.404Z,9.45
2023-01-13T23:19:48.199Z,15.95
2023-01-13T23:22:15.625Z,14.73
2023-01-13T23:24:42.445Z,12.80
2023-01-13T23:27:09.321Z,11.70
2023-01-13T23:29:36.917Z,8.30
2023-01-13T23:32:03.927Z,13.80
2023-01-13T23:34:30.959Z,15.27
2023-01-13T23:36:57.752Z,18.30
2023-01-13T23:39:24.749Z,15.07
2023-01-13T23:41:51.783Z,14.98
2023-01-13T23:44:18.603Z,9.30
2023-01-13T23:46:45.465Z,12.70
2023-01-13T23:49:12.248Z,9.65
2023-01-13T23:51:39.283Z,10.88
2023-01-13T23:54:06.186Z,9.85
2023-01-13T23:56:33.989Z,12.73
2023-01-13T23:59:00.789Z,11.80
